TAF Text Data
IDs:
Format:
Raw Decoded Include METAR

Data at: 0501 UTC 30 Jun 2022

VVNB 300430Z 30005KT 280V340 9999 FEW019 BKN027 29/25 Q1002 NOSIG

TAF VVNB 292300Z 3000/3024 06005KT 9999 FEW017 BKN040
  TEMPO 3004/3007 3000 +TSRA SCT020 FEW027CB BKN035
  TEMPO 3018/3023 3000 +TSRA SCT015 FEW027CB BKN035